Time;durP1;ratioP1;P1;durP2;ratioP2;P2;SDS_P1;SDS_P2;PMS_P1;PMS_P2;Temp;Humidity;BMP_temperature;BMP_pressure;BME280_temperature;BME280_humidity;BME280_pressure;Samples;Min_cycle;Max_cycle;Signal;HPM_P1;HPM_P2
2022/08/28 00:00:39;;;;;;;5.00;2.47;;;18.70;1.00;;;;;;5075289;28;20247;-71
2022/08/28 00:03:05;;;;;;;5.73;2.70;;;18.80;1.00;;;;;;5075355;28;20177;-71
2022/08/28 00:05:31;;;;;;;7.27;3.00;;;18.70;1.00;;;;;;5075112;28;20686;-71
2022/08/28 00:07:58;;;;;;;5.17;3.10;;;18.60;1.00;;;;;;5074966;28;20497;-71
2022/08/28 00:10:25;;;;;;;4.43;2.53;;;18.60;1.00;;;;;;5074820;28;20691;-71
2022/08/28 00:12:56;;;;;;;5.63;2.97;;;18.60;1.00;;;;;;5074688;28;20681;-71
2022/08/28 00:15:34;;;;;;;5.73;2.60;;;18.60;99.90;;;;;;5073639;28;20632;-72
2022/08/28 00:18:02;;;;;;;6.33;2.77;;;18.60;1.00;;;;;;5074693;28;20219;-71
2022/08/28 00:20:29;;;;;;;4.27;2.70;;;18.60;1.00;;;;;;5074877;28;20165;-71
2022/08/28 00:22:56;;;;;;;6.33;2.70;;;18.60;99.90;;;;;;5074863;28;20256;-70
2022/08/28 00:25:24;;;;;;;3.67;2.67;;;18.60;1.00;;;;;;5074766;28;20173;-71
2022/08/28 00:27:51;;;;;;;3.93;2.83;;;18.60;1.00;;;;;;5074255;28;20181;-70
2022/08/28 00:30:30;;;;;;;6.03;2.97;;;18.50;99.90;;;;;;5074572;28;20171;-71
2022/08/28 00:32:59;;;;;;;5.80;2.70;;;18.50;1.00;;;;;;5074661;28;20164;-70
2022/08/28 00:35:26;;;;;;;5.60;2.87;;;18.50;20.20;;;;;;5074405;28;20169;-71
2022/08/28 00:37:53;;;;;;;6.20;2.73;;;18.50;99.90;;;;;;5074540;28;20275;-71
2022/08/28 00:40:21;;;;;;;3.93;2.47;;;18.50;1.00;;;;;;5074398;28;20617;-72
2022/08/28 00:42:47;;;;;;;9.00;2.80;;;18.40;1.00;;;;;;5074140;28;20203;-69
2022/08/28 00:45:14;;;;;;;4.00;2.50;;;18.40;1.00;;;;;;5074236;28;20230;-71
2022/08/28 00:47:40;;;;;;;8.00;2.80;;;18.40;99.90;;;;;;5074072;28;20178;-71
2022/08/28 00:50:09;;;;;;;4.70;2.87;;;18.40;1.00;;;;;;5072967;28;20177;-72
2022/08/28 00:52:35;;;;;;;4.57;2.53;;;18.40;84.10;;;;;;5074238;28;20654;-72
2022/08/28 00:55:07;;;;;;;5.27;2.63;;;18.40;1.00;;;;;;5074101;28;20172;-70
2022/08/28 00:57:35;;;;;;;7.20;2.53;;;18.40;1.00;;;;;;5073824;28;20561;-71
2022/08/28 01:00:03;;;;;;;4.87;2.60;;;18.40;1.00;;;;;;5073424;28;20294;-71
2022/08/28 01:02:28;;;;;;;15.47;3.40;;;18.30;1.00;;;;;;5073714;28;20177;-71
2022/08/28 01:04:55;;;;;;;6.20;2.93;;;18.30;1.00;;;;;;5073979;28;20640;-71
2022/08/28 01:07:22;;;;;;;6.17;2.77;;;18.30;1.00;;;;;;5073810;28;20226;-70
2022/08/28 01:09:51;;;;;;;6.27;2.97;;;18.30;99.90;;;;;;5073645;28;20571;-71
2022/08/28 01:12:21;;;;;;;6.23;2.60;;;18.30;1.00;;;;;;5073570;28;20181;-70
2022/08/28 01:14:49;;;;;;;5.00;2.67;;;18.20;1.00;;;;;;5073628;28;20596;-71
2022/08/28 01:17:17;;;;;;;6.83;2.63;;;18.20;1.00;;;;;;5073560;28;20208;-71
2022/08/28 01:19:51;;;;;;;5.93;2.60;;;18.20;1.00;;;;;;5073740;28;20707;-71
2022/08/28 01:22:28;;;;;;;4.40;2.57;;;18.20;1.00;;;;;;5073691;28;20230;-70
2022/08/28 01:24:57;;;;;;;4.87;2.37;;;18.20;1.00;;;;;;5073373;28;20179;-70
2022/08/28 01:27:23;;;;;;;5.77;2.67;;;18.30;99.90;;;;;;5073451;28;20177;-70
2022/08/28 01:29:49;;;;;;;5.07;2.63;;;18.20;99.90;;;;;;5073567;28;20229;-70
2022/08/28 01:32:31;;;;;;;5.83;2.43;;;18.10;1.00;;;;;;5073491;28;20229;-71
2022/08/28 01:34:57;;;;;;;5.37;2.37;;;18.10;1.00;;;;;;5073286;28;20173;-71
2022/08/28 01:37:23;;;;;;;5.20;2.40;;;18.20;1.00;;;;;;5073262;28;20204;-71
2022/08/28 01:39:49;;;;;;;6.37;2.80;;;18.10;1.00;;;;;;5073111;28;20168;-71
2022/08/28 01:42:15;;;;;;;5.60;2.83;;;18.10;1.00;;;;;;5073352;28;20185;-71
2022/08/28 01:44:40;;;;;;;6.67;2.70;;;18.20;1.00;;;;;;5073220;28;20161;-71
2022/08/28 01:47:06;;;;;;;6.63;2.40;;;18.10;1.00;;;;;;5073099;28;20309;-71
2022/08/28 01:49:32;;;;;;;5.53;2.60;;;18.10;1.00;;;;;;5073452;28;20172;-71
2022/08/28 01:51:57;;;;;;;5.50;2.67;;;18.10;99.90;;;;;;5072292;28;20177;-71
2022/08/28 01:54:24;;;;;;;3.07;2.37;;;18.00;1.00;;;;;;5072897;28;20211;-71
2022/08/28 01:56:51;;;;;;;5.93;2.40;;;18.00;1.00;;;;;;5073072;28;20172;-71
2022/08/28 01:59:16;;;;;;;7.03;2.70;;;18.00;1.00;;;;;;5073077;28;20654;-71
2022/08/28 02:01:42;;;;;;;4.03;2.50;;;17.90;19.90;;;;;;5073014;28;20259;-71
2022/08/28 02:04:09;;;;;;;4.33;2.90;;;17.90;99.90;;;;;;5073081;28;20195;-71
2022/08/28 02:06:35;;;;;;;5.43;2.77;;;18.00;99.90;;;;;;5073080;28;20523;-71
2022/08/28 02:09:01;;;;;;;3.87;2.37;;;18.00;99.90;;;;;;5072609;28;20551;-71
2022/08/28 02:11:29;;;;;;;7.00;2.77;;;18.00;1.00;;;;;;5076826;28;20179;-71
2022/08/28 02:13:55;;;;;;;8.23;2.93;;;18.00;9.00;;;;;;5077100;28;20635;-71
2022/08/28 02:16:21;;;;;;;6.97;3.30;;;18.00;99.90;;;;;;5077125;28;20168;-71
2022/08/28 02:18:46;;;;;;;6.40;2.50;;;18.00;99.90;;;;;;5077115;28;20290;-71
2022/08/28 02:21:12;;;;;;;4.50;2.70;;;17.90;99.90;;;;;;5077174;28;20214;-71
2022/08/28 02:23:40;;;;;;;4.90;2.90;;;17.80;78.00;;;;;;5075445;28;20526;-71
2022/08/28 02:26:08;;;;;;;6.90;3.00;;;17.70;1.00;;;;;;5076979;28;20168;-71
2022/08/28 02:28:34;;;;;;;8.10;2.97;;;17.70;1.00;;;;;;5076877;28;20196;-71
2022/08/28 02:30:59;;;;;;;5.23;2.73;;;17.70;1.00;;;;;;5077135;28;20168;-71
2022/08/28 02:33:25;;;;;;;5.87;3.00;;;17.70;1.00;;;;;;5076994;28;20161;-71
2022/08/28 02:35:51;;;;;;;5.10;2.90;;;17.80;1.00;;;;;;5076779;28;20161;-71
2022/08/28 02:38:16;;;;;;;5.03;3.30;;;17.70;1.00;;;;;;5076377;28;20216;-71
2022/08/28 02:40:42;;;;;;;4.57;3.03;;;17.70;1.00;;;;;;5076785;28;20168;-71
2022/08/28 02:43:08;;;;;;;5.23;3.60;;;17.60;1.00;;;;;;5076636;28;20616;-71
2022/08/28 02:45:34;;;;;;;8.70;3.60;;;17.50;1.00;;;;;;5076473;28;20251;-71
2022/08/28 02:48:00;;;;;;;7.77;3.43;;;17.50;25.00;;;;;;5076737;28;20176;-71
2022/08/28 02:50:28;;;;;;;6.93;3.27;;;17.50;1.00;;;;;;5076508;28;20215;-71
2022/08/28 02:52:54;;;;;;;8.10;3.70;;;17.50;1.00;;;;;;5076123;28;20184;-71
2022/08/28 02:55:20;;;;;;;5.10;3.87;;;17.40;43.30;;;;;;5075256;28;20179;-71
2022/08/28 02:57:47;;;;;;;10.00;4.17;;;17.40;69.60;;;;;;5076292;28;20212;-71
2022/08/28 03:00:18;;;;;;;9.83;3.73;;;17.30;1.00;;;;;;5076328;28;20271;-71
2022/08/28 03:02:45;;;;;;;7.93;3.97;;;17.30;58.60;;;;;;5076453;28;20184;-71
2022/08/28 03:05:12;;;;;;;8.13;3.53;;;17.30;99.90;;;;;;5076177;28;20505;-71
2022/08/28 03:07:38;;;;;;;9.53;3.57;;;17.30;99.90;;;;;;5075986;28;20182;-70
2022/08/28 03:10:06;;;;;;;8.27;3.87;;;17.30;99.90;;;;;;5075975;28;20228;-70
2022/08/28 03:12:32;;;;;;;11.00;4.30;;;17.20;99.90;;;;;;5075560;28;20181;-70
2022/08/28 03:14:57;;;;;;;9.43;3.70;;;17.30;99.90;;;;;;5075367;28;20177;-70
2022/08/28 03:17:23;;;;;;;7.80;4.50;;;17.30;99.90;;;;;;5075515;28;20669;-70
2022/08/28 03:19:49;;;;;;;5.50;3.83;;;17.30;99.90;;;;;;5074619;28;20177;-71
2022/08/28 03:23:24;;;;;;;6.63;3.90;;;17.30;99.90;;;;;;5073713;28;20176;-69
2022/08/28 03:25:05;;;;;;;8.43;4.60;;;17.30;99.90;;;;;;5075482;28;20169;-71
2022/08/28 03:27:31;;;;;;;8.37;4.57;;;17.40;99.90;;;;;;5075737;28;20168;-70
2022/08/28 03:29:58;;;;;;;7.33;4.80;;;17.30;99.90;;;;;;5075865;28;20255;-70
2022/08/28 03:32:25;;;;;;;8.30;4.33;;;17.20;99.90;;;;;;5075514;28;20177;-69
2022/08/28 03:34:52;;;;;;;9.83;4.50;;;17.10;99.90;;;;;;5075833;28;20177;-70
2022/08/28 03:37:18;;;;;;;7.80;4.00;;;17.20;99.90;;;;;;5075357;28;20230;-70
2022/08/28 03:39:44;;;;;;;8.10;3.70;;;17.10;1.00;;;;;;5075547;28;20256;-69
2022/08/28 03:42:10;;;;;;;8.30;4.17;;;17.00;1.00;;;;;;5075334;28;20654;-71
2022/08/28 03:44:37;;;;;;;10.60;4.13;;;17.00;1.00;;;;;;5075398;28;20234;-69
2022/08/28 03:47:03;;;;;;;7.07;4.10;;;17.00;1.00;;;;;;5075459;28;20313;-69
2022/08/28 03:49:29;;;;;;;9.50;4.30;;;16.90;1.00;;;;;;5073941;28;20173;-69
2022/08/28 03:51:55;;;;;;;9.50;4.20;;;16.90;1.00;;;;;;5075084;28;20172;-69
2022/08/28 03:54:21;;;;;;;7.17;4.40;;;16.90;1.00;;;;;;5074964;28;20169;-69
2022/08/28 03:56:46;;;;;;;7.77;4.77;;;16.90;1.00;;;;;;5074875;28;20521;-70
2022/08/28 03:59:12;;;;;;;7.73;4.53;;;16.90;1.00;;;;;;5074922;28;20691;-69
2022/08/28 04:01:38;;;;;;;5.83;4.53;;;17.00;1.00;;;;;;5075217;28;20207;-71
2022/08/28 04:04:03;;;;;;;11.77;4.47;;;16.90;1.00;;;;;;5075029;28;20219;-70
2022/08/28 04:06:29;;;;;;;9.97;4.60;;;16.90;1.00;;;;;;5073391;28;20267;-70
2022/08/28 04:08:55;;;;;;;8.53;4.40;;;16.90;1.00;;;;;;5074778;28;20235;-70
2022/08/28 04:11:21;;;;;;;11.50;4.73;;;16.90;1.00;;;;;;5075071;28;20617;-70
2022/08/28 04:13:47;;;;;;;8.20;4.67;;;16.90;1.00;;;;;;5074893;28;20173;-70
2022/08/28 04:16:15;;;;;;;12.53;5.03;;;16.90;1.00;;;;;;5074942;28;20176;-70
2022/08/28 04:18:42;;;;;;;10.33;4.57;;;16.90;1.00;;;;;;5073119;28;20349;-70
2022/08/28 04:21:15;;;;;;;12.93;4.73;;;16.80;1.00;;;;;;5074474;28;20256;-70
2022/08/28 04:23:42;;;;;;;10.00;4.53;;;16.90;1.00;;;;;;5074709;28;20211;-70
2022/08/28 04:26:10;;;;;;;9.97;4.37;;;16.90;1.00;;;;;;5073263;28;20177;-70
2022/08/28 04:28:35;;;;;;;11.53;4.90;;;16.80;1.00;;;;;;5074621;28;20218;-69
2022/08/28 04:31:02;;;;;;;9.00;4.60;;;16.70;1.00;;;;;;5074572;28;20616;-70
2022/08/28 04:33:29;;;;;;;8.13;4.70;;;16.70;1.00;;;;;;5073168;28;20226;-70
2022/08/28 04:35:55;;;;;;;13.07;4.50;;;16.70;1.00;;;;;;5074363;28;20168;-70
2022/08/28 04:38:21;;;;;;;10.57;4.60;;;16.70;1.00;;;;;;5073981;28;20347;-70
2022/08/28 04:40:47;;;;;;;9.90;4.30;;;16.70;1.00;;;;;;5074407;28;20177;-70
2022/08/28 04:43:12;;;;;;;9.20;4.67;;;16.70;1.00;;;;;;5073857;28;20173;-70
2022/08/28 04:45:43;;;;;;;11.17;4.23;;;16.60;1.00;;;;;;5073817;28;20636;-70
2022/08/28 04:48:11;;;;;;;11.00;4.27;;;16.70;1.00;;;;;;5073594;28;20215;-70
2022/08/28 04:50:44;;;;;;;9.67;3.73;;;16.60;1.00;;;;;;5073877;28;20197;-70
2022/08/28 04:53:10;;;;;;;9.17;4.27;;;16.50;1.00;;;;;;5073728;28;20180;-70
2022/08/28 04:55:44;;;;;;;9.97;4.50;;;16.50;1.00;;;;;;5074046;28;20165;-70
2022/08/28 04:58:12;;;;;;;10.40;4.43;;;16.50;1.00;;;;;;5072381;28;20597;-70
2022/08/28 05:00:39;;;;;;;10.83;4.90;;;16.50;1.00;;;;;;5073737;28;20177;-70
2022/08/28 05:03:05;;;;;;;7.60;4.43;;;16.50;1.00;;;;;;5073414;28;20160;-70
2022/08/28 05:05:30;;;;;;;6.83;3.80;;;16.50;1.00;;;;;;5073840;28;20239;-70
2022/08/28 05:07:56;;;;;;;13.97;4.93;;;16.40;1.00;;;;;;5073513;28;20306;-70
2022/08/28 05:10:22;;;;;;;11.43;4.47;;;16.40;1.00;;;;;;5073447;28;20265;-70
2022/08/28 05:12:48;;;;;;;13.93;4.70;;;16.40;1.00;;;;;;5073434;28;20237;-70
2022/08/28 05:15:14;;;;;;;7.80;3.90;;;16.40;1.00;;;;;;5073358;28;20167;-70
2022/08/28 05:17:40;;;;;;;8.47;4.27;;;16.40;1.00;;;;;;5072966;28;20215;-70
2022/08/28 05:20:06;;;;;;;10.47;4.23;;;16.40;1.00;;;;;;5072053;28;20164;-70
2022/08/28 05:22:32;;;;;;;8.07;3.80;;;16.40;1.00;;;;;;5072532;28;20286;-70
2022/08/28 05:24:59;;;;;;;11.03;4.47;;;16.50;1.00;;;;;;5073510;28;20165;-70
2022/08/28 05:27:26;;;;;;;9.30;3.70;;;16.50;1.00;;;;;;5073180;28;20210;-70
2022/08/28 05:29:52;;;;;;;10.67;4.10;;;16.40;1.00;;;;;;5073563;28;20172;-70
2022/08/28 05:32:18;;;;;;;9.63;3.63;;;16.40;1.00;;;;;;5072985;28;20225;-70
2022/08/28 05:34:45;;;;;;;7.37;3.70;;;16.40;1.00;;;;;;5073311;28;20180;-70
2022/08/28 05:37:10;;;;;;;12.20;3.97;;;16.50;1.00;;;;;;5073292;28;20168;-71
2022/08/28 05:39:36;;;;;;;10.77;3.60;;;16.50;1.00;;;;;;5055246;28;20223;-71
2022/08/28 05:42:02;;;;;;;7.37;3.80;;;16.50;1.00;;;;;;5072932;28;20524;-71
2022/08/28 05:44:28;;;;;;;10.53;3.93;;;16.50;1.00;;;;;;5072699;28;20633;-71
2022/08/28 05:46:54;;;;;;;10.03;3.53;;;16.60;1.00;;;;;;5071660;28;20175;-71
2022/08/28 05:49:20;;;;;;;11.40;3.90;;;16.70;1.00;;;;;;5073267;28;20179;-71
2022/08/28 05:51:46;;;;;;;7.13;3.80;;;16.70;1.00;;;;;;5073214;28;20289;-71
2022/08/28 05:54:13;;;;;;;5.67;3.30;;;16.70;1.00;;;;;;5073042;28;20671;-70
2022/08/28 05:56:40;;;;;;;8.90;3.97;;;16.70;1.00;;;;;;5072478;28;20223;-70
2022/08/28 05:59:07;;;;;;;6.97;3.67;;;16.60;1.00;;;;;;5072706;28;20200;-71
2022/08/28 06:01:56;;;;;;;8.60;3.03;;;16.70;1.00;;;;;;5072829;28;20177;-70
2022/08/28 06:04:26;;;;;;;10.20;3.17;;;16.70;1.00;;;;;;5071778;28;20179;-69
2022/08/28 06:06:52;;;;;;;7.20;3.20;;;16.80;1.00;;;;;;5072726;28;20248;-70
2022/08/28 06:09:21;;;;;;;10.77;3.83;;;17.00;1.00;;;;;;5072406;28;20251;-70
2022/08/28 06:11:48;;;;;;;6.53;3.40;;;17.20;1.00;;;;;;5072759;28;20687;-69
2022/08/28 06:14:18;;;;;;;8.47;3.30;;;17.60;99.90;;;;;;5072790;28;20177;-69
2022/08/28 06:16:51;;;;;;;7.80;3.03;;;17.70;99.90;;;;;;5072255;28;20267;-70
2022/08/28 06:19:18;;;;;;;11.30;3.63;;;18.00;1.00;;;;;;5072626;28;20208;-70
2022/08/28 06:21:45;;;;;;;5.37;2.90;;;18.40;1.00;;;;;;5072684;28;20176;-70
2022/08/28 06:24:12;;;;;;;6.43;3.10;;;18.70;1.00;;;;;;5072466;28;20218;-71
2022/08/28 06:26:38;;;;;;;8.73;3.27;;;18.60;99.90;;;;;;5073064;28;20207;-71
2022/08/28 06:29:08;;;;;;;10.73;3.47;;;18.20;1.00;;;;;;5072996;28;20176;-71
2022/08/28 06:31:34;;;;;;;7.67;3.23;;;18.20;99.90;;;;;;5072549;28;20168;-71
2022/08/28 06:34:00;;;;;;;6.87;2.97;;;18.60;1.00;;;;;;5072270;28;20195;-72
2022/08/28 06:36:28;;;;;;;8.93;3.20;;;19.30;1.00;;;;;;5071472;28;20168;-72
2022/08/28 06:38:56;;;;;;;6.53;2.97;;;19.80;99.90;;;;;;5071072;28;20702;-73
2022/08/28 06:41:23;;;;;;;8.63;2.95;;;20.80;1.00;;;;;;5072316;28;20248;-73
2022/08/28 06:43:49;;;;;;;5.68;2.65;;;21.70;99.90;;;;;;5071116;28;20177;-74
2022/08/28 06:46:15;;;;;;;7.78;3.00;;;21.90;1.00;;;;;;5072415;28;20168;-74
2022/08/28 06:48:41;;;;;;;5.00;2.28;;;22.20;1.00;;;;;;5071259;28;20173;-75
2022/08/28 06:51:09;;;;;;;7.03;2.83;;;22.30;1.00;;;;;;5072177;28;20172;-75
2022/08/28 06:53:37;;;;;;;8.98;3.20;;;22.70;1.00;;;;;;5072017;28;20591;-74
2022/08/28 06:56:16;;;;;;;4.05;2.58;;;22.50;1.00;;;;;;5071018;28;20168;-73
2022/08/28 06:58:43;;;;;;;11.15;2.88;;;21.60;1.00;;;;;;5075722;28;20208;-73
2022/08/28 07:01:15;;;;;;;7.55;2.72;;;21.00;1.00;;;;;;5075721;28;20225;-71
2022/08/28 07:03:41;;;;;;;7.28;2.75;;;20.30;99.90;;;;;;5075874;28;20171;-73
2022/08/28 07:06:08;;;;;;;5.50;2.80;;;19.70;1.00;;;;;;5074788;28;20176;-74
2022/08/28 07:08:35;;;;;;;7.57;2.55;;;20.10;1.00;;;;;;5075447;28;20264;-76
2022/08/28 07:11:15;;;;;;;3.85;2.55;;;21.10;59.40;;;;;;5075724;28;20164;-76
2022/08/28 07:13:42;;;;;;;5.93;2.90;;;21.70;1.00;;;;;;5075538;28;20199;-75
2022/08/28 07:16:08;;;;;;;6.03;2.90;;;21.60;1.00;;;;;;5074395;28;20164;-76
2022/08/28 07:18:34;;;;;;;7.35;2.90;;;22.50;1.00;;;;;;5057258;28;20225;-76
2022/08/28 07:21:00;;;;;;;9.50;3.00;;;23.10;1.00;;;;;;5075821;28;20157;-76
2022/08/28 07:23:27;;;;;;;5.47;2.58;;;23.90;1.00;;;;;;5075312;28;20248;-76
2022/08/28 07:25:53;;;;;;;8.13;2.90;;;24.30;99.90;;;;;;5075617;28;20196;-75
2022/08/28 07:28:20;;;;;;;7.22;2.67;;;24.50;99.90;;;;;;5075104;28;20176;-75
2022/08/28 07:30:55;;;;;;;5.20;2.65;;;24.30;99.90;;;;;;5075813;28;20203;-75
2022/08/28 07:33:20;;;;;;;8.45;2.83;;;24.90;99.90;;;;;;5075346;28;20175;-75
2022/08/28 07:35:46;;;;;;;8.85;2.55;;;23.90;99.90;;;;;;5075478;28;20252;-76
2022/08/28 07:38:12;;;;;;;5.50;2.45;;;23.60;99.90;;;;;;5075285;28;20204;-76
2022/08/28 07:40:37;;;;;;;5.40;2.60;;;23.70;99.90;;;;;;5075117;28;20310;-77
2022/08/28 07:46:08;;;;;;;4.97;2.35;;;23.90;99.90;;;;;;5073935;28;20707;-76
2022/08/28 07:48:34;;;;;;;5.57;2.53;;;24.30;99.90;;;;;;5073974;28;20166;-75
2022/08/28 07:51:01;;;;;;;8.50;2.80;;;24.80;99.90;;;;;;5075315;28;20247;-76
2022/08/28 07:53:26;;;;;;;4.90;2.10;;;25.30;99.90;;;;;;5074445;28;20169;-75
2022/08/28 07:55:52;;;;;;;5.13;2.28;;;25.60;99.90;;;;;;5075107;28;20250;-76
2022/08/28 07:58:18;;;;;;;6.55;3.03;;;24.30;99.90;;;;;;5074105;28;20204;-77
2022/08/28 08:00:44;;;;;;;5.43;2.55;;;23.30;99.90;;;;;;5074607;28;20195;-75
2022/08/28 08:03:10;;;;;;;7.05;2.85;;;23.90;99.90;;;;;;5074882;28;20640;-75
2022/08/28 08:05:36;;;;;;;4.72;2.60;;;24.10;99.90;;;;;;5074792;28;20531;-76
2022/08/28 08:08:02;;;;;;;8.23;2.60;;;24.10;99.90;;;;;;5074340;28;20243;-75
2022/08/28 08:10:28;;;;;;;9.10;2.47;;;23.90;99.90;;;;;;5074018;28;20235;-75
2022/08/28 08:12:53;;;;;;;6.47;2.38;;;24.70;99.90;;;;;;5073808;28;20181;-75
2022/08/28 08:15:19;;;;;;;3.00;2.13;;;25.30;99.90;;;;;;5074719;28;20271;-74
2022/08/28 08:17:45;;;;;;;3.97;2.67;;;24.60;99.90;;;;;;5074172;28;20208;-75
2022/08/28 08:20:10;;;;;;;7.15;2.65;;;24.40;99.90;;;;;;5074118;28;20160;-75
2022/08/28 08:22:36;;;;;;;3.60;2.50;;;24.80;99.90;;;;;;5074137;28;20306;-76
2022/08/28 08:25:04;;;;;;;4.32;2.63;;;25.40;99.90;;;;;;5073877;28;20161;-75
2022/08/28 08:27:30;;;;;;;8.13;2.70;;;25.20;99.90;;;;;;5074144;28;20199;-76
2022/08/28 08:29:56;;;;;;;4.72;2.47;;;25.20;99.90;;;;;;5073891;28;20160;-76
2022/08/28 08:32:22;;;;;;;2.67;2.33;;;25.10;99.90;;;;;;5074202;28;20521;-76
2022/08/28 08:34:51;;;;;;;6.32;2.47;;;24.80;99.90;;;;;;5073811;28;20173;-76
2022/08/28 08:37:17;;;;;;;6.35;2.38;;;24.50;99.90;;;;;;5074200;28;20215;-75
2022/08/28 08:39:43;;;;;;;4.95;2.42;;;24.70;99.90;;;;;;5072912;28;20210;-75
2022/08/28 08:42:27;;;;;;;8.95;2.55;;;25.00;99.90;;;;;;5073827;28;20175;-76
2022/08/28 08:44:56;;;;;;;5.40;2.67;;;25.70;99.90;;;;;;5074017;28;20266;-75
2022/08/28 08:47:50;;;;;;;6.30;2.85;;;25.80;99.90;;;;;;5073498;28;20179;-75
2022/08/28 08:50:20;;;;;;;6.40;2.20;;;26.90;99.90;;;;;;5074009;28;20176;-76
2022/08/28 08:52:45;;;;;;;3.17;2.55;;;26.00;99.90;;;;;;5073896;28;20199;-76
2022/08/28 08:55:30;;;;;;;4.57;2.75;;;25.80;99.90;;;;;;5073320;28;20192;-76
2022/08/28 08:58:05;;;;;;;5.10;2.47;;;25.80;99.90;;;;;;5073597;28;20204;-76
2022/08/28 09:00:37;;;;;;;6.45;2.47;;;25.50;99.90;;;;;;5073617;28;20630;-76
2022/08/28 09:03:10;;;;;;;4.90;2.50;;;25.70;99.90;;;;;;5073646;28;20171;-76
2022/08/28 09:05:53;;;;;;;4.03;2.60;;;25.40;99.90;;;;;;5072285;28;20172;-75
2022/08/28 09:08:43;;;;;;;3.80;2.50;;;26.20;99.90;;;;;;5073256;28;20267;-75
2022/08/28 09:11:27;;;;;;;5.72;2.60;;;25.50;99.90;;;;;;5071500;28;20289;-75
2022/08/28 09:14:27;;;;;;;7.28;2.75;;;25.10;99.90;;;;;;5073649;28;20179;-75
2022/08/28 09:16:55;;;;;;;9.45;2.95;;;25.40;99.90;;;;;;5072478;28;20203;-74
2022/08/28 09:19:22;;;;;;;6.03;2.70;;;25.80;99.90;;;;;;5071365;28;20220;-75
2022/08/28 09:21:50;;;;;;;5.43;2.85;;;25.90;99.90;;;;;;5071499;28;20168;-74
2022/08/28 09:24:30;;;;;;;5.18;2.30;;;25.80;99.90;;;;;;5073345;28;20582;-75
2022/08/28 09:27:03;;;;;;;4.43;2.65;;;26.30;99.90;;;;;;5073114;28;20176;-74
2022/08/28 09:29:31;;;;;;;6.55;2.78;;;26.50;99.90;;;;;;5073010;28;20169;-74
2022/08/28 09:31:57;;;;;;;5.88;2.70;;;27.50;99.90;;;;;;5073195;28;20168;-74
2022/08/28 09:34:30;;;;;;;6.53;2.85;;;27.40;99.90;;;;;;5073138;28;20259;-74
2022/08/28 09:36:58;;;;;;;4.25;2.38;;;27.70;99.90;;;;;;5073295;28;20172;-74
2022/08/28 09:39:30;;;;;;;3.83;2.42;;;26.10;99.90;;;;;;5072754;28;20216;-75
2022/08/28 09:45:05;;;;;;;7.07;2.53;;;25.40;99.90;;;;;;5072840;28;20198;-76
2022/08/28 09:47:42;;;;;;;5.15;2.97;;;25.50;99.90;;;;;;5073054;28;20188;-75
2022/08/28 09:50:20;;;;;;;4.28;2.75;;;25.70;99.90;;;;;;5073191;28;20175;-75
2022/08/28 09:52:46;;;;;;;2.40;2.00;;;25.90;99.90;;;;;;5072392;28;20177;-75
2022/08/28 09:55:20;;;;;;;3.17;2.63;;;25.40;99.90;;;;;;5072583;28;20208;-75
2022/08/28 09:57:47;;;;;;;4.50;2.38;;;26.30;99.90;;;;;;5072542;28;20280;-75
2022/08/28 10:00:13;;;;;;;5.88;2.63;;;26.80;99.90;;;;;;5072632;28;20259;-75
2022/08/28 10:02:51;;;;;;;3.38;2.30;;;25.50;99.90;;;;;;5072675;28;20165;-76
2022/08/28 10:05:27;;;;;;;5.07;2.20;;;25.60;99.90;;;;;;5072486;28;20628;-75
2022/08/28 10:08:26;;;;;;;4.25;2.53;;;25.90;99.90;;;;;;5072484;28;20255;-76
2022/08/28 10:10:57;;;;;;;5.38;2.47;;;25.80;99.90;;;;;;5072026;28;20273;-76
2022/08/28 10:13:30;;;;;;;4.95;2.45;;;25.20;99.90;;;;;;5071506;28;20177;-77
2022/08/28 10:16:14;;;;;;;8.18;2.58;;;24.90;99.90;;;;;;5072693;28;20178;-76
2022/08/28 10:18:42;;;;;;;6.45;2.35;;;25.00;99.90;;;;;;5071202;28;20679;-76
2022/08/28 10:21:25;;;;;;;5.78;2.20;;;24.90;99.90;;;;;;5072537;28;20172;-77
2022/08/28 10:24:12;;;;;;;4.85;2.35;;;24.60;99.90;;;;;;5072354;28;20178;-76
2022/08/28 10:27:06;;;;;;;5.75;2.67;;;24.90;99.90;;;;;;5071440;28;20181;-77
2022/08/28 10:29:48;;;;;;;6.10;2.50;;;23.40;99.90;;;;;;5072741;28;20164;-78
2022/08/28 10:32:32;;;;;;;4.72;2.47;;;23.40;99.90;;;;;;5074398;28;20647;-78
2022/08/28 10:35:04;;;;;;;5.18;2.33;;;24.60;99.90;;;;;;5076542;28;20679;-78
2022/08/28 10:38:00;;;;;;;3.40;1.90;;;24.30;99.90;;;;;;5075095;28;20200;-78
2022/08/28 10:40:33;;;;;;;4.82;2.50;;;23.70;99.90;;;;;;5076424;28;20176;-77
2022/08/28 10:43:04;;;;;;;4.15;2.40;;;23.70;99.90;;;;;;5076219;28;20234;-78
2022/08/28 10:45:33;;;;;;;6.20;2.63;;;24.10;99.90;;;;;;5075986;28;20173;-78
2022/08/28 10:48:27;;;;;;;3.50;2.63;;;24.20;99.90;;;;;;5074561;28;20259;-77
2022/08/28 10:50:59;;;;;;;4.05;2.33;;;24.10;99.90;;;;;;5075607;28;20167;-77
2022/08/28 10:53:36;;;;;;;6.50;2.78;;;24.60;99.90;;;;;;5074880;28;20172;-78
2022/08/28 10:56:14;;;;;;;8.32;4.45;;;25.20;99.90;;;;;;5076000;28;20171;-78
2022/08/28 10:58:40;;;;;;;3.25;2.28;;;24.90;99.90;;;;;;5075824;28;20211;-78
2022/08/28 11:01:13;;;;;;;5.82;2.88;;;25.00;99.90;;;;;;5074050;28;20168;-77
2022/08/28 11:03:48;;;;;;;7.50;2.47;;;24.80;99.90;;;;;;5075623;28;20635;-78
2022/08/28 11:06:39;;;;;;;4.38;2.20;;;25.80;99.90;;;;;;5075496;28;20172;-78
2022/08/28 11:09:24;;;;;;;7.07;2.97;;;25.60;99.90;;;;;;5066472;28;20220;-77
2022/08/28 11:11:58;;;;;;;2.35;2.00;;;25.10;99.90;;;;;;5075491;28;20251;-76
2022/08/28 11:14:46;;;;;;;4.95;2.45;;;25.30;99.90;;;;;;5074682;28;20171;-77
2022/08/28 11:17:20;;;;;;;3.10;2.10;;;26.10;99.90;;;;;;5073824;28;20188;-77
2022/08/28 11:20:04;;;;;;;3.40;2.30;;;25.60;99.90;;;;;;5075401;28;20176;-77
2022/08/28 11:22:38;;;;;;;2.97;1.90;;;25.40;99.90;;;;;;5075097;28;20198;-78
2022/08/28 11:25:18;;;;;;;5.70;2.20;;;25.30;99.90;;;;;;5075655;28;20276;-76
2022/08/28 11:28:13;;;;;;;4.50;2.38;;;25.30;99.90;;;;;;5075179;28;20176;-77
2022/08/28 11:30:39;;;;;;;3.67;1.73;;;25.00;99.90;;;;;;5013717;28;20257;-76
2022/08/28 11:33:08;;;;;;;5.00;2.20;;;24.90;99.90;;;;;;5013518;28;20704;-76
2022/08/28 11:35:47;;;;;;;4.93;2.22;;;24.10;99.90;;;;;;5012941;28;20290;-77
2022/08/28 11:38:42;;;;;;;5.85;1.60;;;23.50;99.90;;;;;;5012433;28;20214;-76
2022/08/28 11:41:38;;;;;;;4.18;2.17;;;24.10;99.90;;;;;;5013565;28;20221;-77
2022/08/28 11:44:12;;;;;;;2.45;2.22;;;24.00;99.90;;;;;;5012762;28;20173;-77
2022/08/28 11:46:39;;;;;;;3.25;2.22;;;24.00;99.90;;;;;;5012691;28;20175;-75
2022/08/28 11:49:28;;;;;;;4.55;2.10;;;24.40;99.90;;;;;;4996105;28;20202;-75
2022/08/28 11:52:16;;;;;;;4.10;2.10;;;24.80;99.90;;;;;;5013394;28;20174;-75
2022/08/28 11:54:59;;;;;;;2.90;2.53;;;24.90;99.90;;;;;;5012995;28;20210;-75
2022/08/28 11:57:42;;;;;;;4.80;2.38;;;23.70;99.90;;;;;;5012542;28;20177;-75
2022/08/28 12:00:38;;;;;;;5.47;2.50;;;24.10;99.90;;;;;;4996360;28;20416;-76
2022/08/28 12:03:14;;;;;;;6.72;2.13;;;24.90;99.90;;;;;;5012529;28;20210;-76
2022/08/28 12:05:43;;;;;;;4.65;1.95;;;25.10;99.90;;;;;;5012558;28;20174;-76
2022/08/28 12:08:09;;;;;;;5.85;2.50;;;24.30;99.90;;;;;;5063420;28;20692;-75
2022/08/28 12:10:38;;;;;;;5.35;2.70;;;24.10;99.90;;;;;;5074592;28;20232;-76
2022/08/28 12:13:07;;;;;;;5.65;1.77;;;24.00;99.90;;;;;;5074513;28;20176;-75
2022/08/28 12:15:33;;;;;;;4.22;1.92;;;23.70;99.90;;;;;;5074479;28;20219;-75
2022/08/28 12:18:10;;;;;;;5.20;2.20;;;23.50;99.90;;;;;;5074146;28;20216;-74
2022/08/28 12:21:05;;;;;;;2.78;1.80;;;23.60;99.90;;;;;;5074582;28;20160;-75
2022/08/28 12:23:35;;;;;;;3.05;2.03;;;23.50;99.90;;;;;;5074214;28;20684;-75
2022/08/28 12:26:21;;;;;;;4.20;2.10;;;23.20;99.90;;;;;;5072620;28;20176;-74
2022/08/28 12:28:55;;;;;;;4.50;2.20;;;23.00;99.90;;;;;;5073922;28;20165;-74
2022/08/28 12:34:42;;;;;;;5.18;2.38;;;23.20;99.90;;;;;;5074465;28;20223;-74
2022/08/28 12:37:26;;;;;;;3.67;1.80;;;23.30;99.90;;;;;;5073714;28;20165;-75
2022/08/28 12:39:53;;;;;;;6.28;1.83;;;23.70;99.90;;;;;;5073909;28;20648;-73
2022/08/28 12:42:23;;;;;;;3.92;2.03;;;24.00;99.90;;;;;;5074098;28;20175;-74
2022/08/28 12:44:49;;;;;;;3.67;2.03;;;24.20;99.90;;;;;;5073789;28;20168;-74
2022/08/28 12:47:19;;;;;;;6.78;2.30;;;24.10;99.90;;;;;;5073083;28;20255;-74
2022/08/28 12:49:45;;;;;;;3.70;2.55;;;23.90;99.90;;;;;;5072628;28;20215;-74
2022/08/28 12:52:14;;;;;;;4.07;2.05;;;23.90;99.90;;;;;;5073580;28;20176;-75
2022/08/28 12:54:40;;;;;;;4.70;2.25;;;24.00;99.90;;;;;;5072791;28;20276;-74
2022/08/28 12:57:10;;;;;;;5.45;1.98;;;24.10;99.90;;;;;;5073981;28;20722;-75
2022/08/28 12:59:45;;;;;;;2.80;2.00;;;24.30;99.90;;;;;;5073015;28;20212;-75
2022/08/28 13:02:17;;;;;;;4.07;1.77;;;23.60;99.90;;;;;;5073084;28;20182;-75
2022/08/28 13:05:00;;;;;;;4.25;1.90;;;23.50;99.90;;;;;;5072423;28;20259;-73
2022/08/28 13:07:31;;;;;;;3.47;1.80;;;23.60;99.90;;;;;;5073360;28;20187;-74
2022/08/28 13:10:04;;;;;;;3.47;1.80;;;23.50;99.90;;;;;;5073061;28;20227;-73
2022/08/28 13:12:39;;;;;;;2.90;1.90;;;23.30;99.90;;;;;;5073422;28;20200;-72
2022/08/28 13:15:06;;;;;;;3.45;1.80;;;23.60;99.90;;;;;;5073348;28;20180;-72